createdAt,value
2023-01-25T00:00:30.823Z,1.40
2023-01-25T00:02:57.585Z,1.40
2023-01-25T00:05:24.394Z,1.40
2023-01-25T00:07:50.963Z,1.40
2023-01-25T00:10:17.724Z,1.50
2023-01-25T00:12:44.311Z,1.50
2023-01-25T00:15:11.361Z,1.40
2023-01-25T00:17:38.166Z,1.40
2023-01-25T00:20:05.262Z,1.40
2023-01-25T00:22:31.883Z,1.40
2023-01-25T00:24:58.439Z,1.30
2023-01-25T00:27:25.011Z,1.40
2023-01-25T00:29:51.594Z,1.40
2023-01-25T00:32:21.372Z,1.30
2023-01-25T00:34:49.676Z,1.40
2023-01-25T00:37:51.644Z,1.40
2023-01-25T00:40:18.642Z,1.40
2023-01-25T00:42:45.741Z,1.40
2023-01-25T00:45:13.127Z,1.40
2023-01-25T00:47:39.852Z,1.40
2023-01-25T00:50:07.806Z,1.40
2023-01-25T00:52:34.531Z,1.40
2023-01-25T00:55:01.166Z,1.40
2023-01-25T00:57:27.744Z,1.40
2023-01-25T00:59:54.357Z,1.40
2023-01-25T01:02:21.065Z,1.40
2023-01-25T01:04:47.834Z,1.40
2023-01-25T01:07:15.725Z,1.40
2023-01-25T01:09:42.465Z,1.40
2023-01-25T01:12:09.177Z,1.40
2023-01-25T01:14:35.974Z,1.40
2023-01-25T01:17:02.659Z,1.40
2023-01-25T01:19:29.349Z,1.50
2023-01-25T01:21:55.925Z,1.40
2023-01-25T01:24:22.537Z,1.40
2023-01-25T01:26:49.130Z,1.40
2023-01-25T01:29:15.791Z,1.40
2023-01-25T01:31:42.483Z,1.40
2023-01-25T01:34:12.659Z,1.40
2023-01-25T01:36:39.243Z,1.50
2023-01-25T01:39:06.084Z,1.50
2023-01-25T01:41:32.718Z,1.50
2023-01-25T01:43:59.265Z,1.40
2023-01-25T01:46:38.402Z,1.40
2023-01-25T01:49:12.689Z,1.40
2023-01-25T01:51:57.522Z,1.40
2023-01-25T01:54:36.223Z,1.30
2023-01-25T01:57:28.947Z,1.40
2023-01-25T02:00:25.187Z,1.30
2023-01-25T02:02:51.945Z,1.30
2023-01-25T02:05:30.228Z,1.30
2023-01-25T02:07:57.734Z,1.30
2023-01-25T02:10:26.523Z,1.40
2023-01-25T02:12:55.586Z,1.40
2023-01-25T02:15:22.202Z,1.40
2023-01-25T02:17:50.053Z,1.40
2023-01-25T02:20:27.485Z,1.30
2023-01-25T02:23:03.604Z,1.20
2023-01-25T02:25:30.566Z,1.20
2023-01-25T02:28:22.944Z,1.20
2023-01-25T02:30:49.596Z,1.20
2023-01-25T02:33:16.369Z,1.20
2023-01-25T02:35:53.794Z,1.30
2023-01-25T02:38:21.295Z,1.30
2023-01-25T02:40:55.787Z,1.20
2023-01-25T02:43:24.710Z,1.20
2023-01-25T02:45:58.273Z,1.20
2023-01-25T02:48:24.932Z,1.20
2023-01-25T02:50:51.542Z,1.20
2023-01-25T02:53:18.122Z,1.20
2023-01-25T02:55:45.218Z,1.20
2023-01-25T02:58:11.805Z,1.20
2023-01-25T03:00:38.546Z,1.20
2023-01-25T03:03:05.126Z,1.20
2023-01-25T03:05:32.983Z,1.20
2023-01-25T03:07:59.563Z,1.20
2023-01-25T03:10:26.190Z,1.20
2023-01-25T03:12:53.542Z,1.20
2023-01-25T03:15:20.108Z,1.20
2023-01-25T03:17:46.675Z,1.20
2023-01-25T03:20:13.299Z,1.20
2023-01-25T03:22:39.903Z,1.20
2023-01-25T03:25:07.530Z,1.20
2023-01-25T03:27:34.323Z,1.20
2023-01-25T03:30:01.035Z,1.20
2023-01-25T03:32:27.650Z,1.10
2023-01-25T03:34:54.280Z,1.20
2023-01-25T03:37:21.555Z,1.20
2023-01-25T03:39:48.183Z,1.20
2023-01-25T03:42:15.227Z,1.20
2023-01-25T03:44:41.850Z,1.20
2023-01-25T03:47:08.434Z,1.20
2023-01-25T03:49:35.029Z,1.20
2023-01-25T03:52:01.681Z,1.30
2023-01-25T03:54:28.338Z,1.30
2023-01-25T03:56:54.977Z,1.30
2023-01-25T03:59:21.630Z,1.30
2023-01-25T04:01:48.335Z,1.30
2023-01-25T04:04:15.066Z,1.30
2023-01-25T04:06:41.651Z,1.20
2023-01-25T04:09:08.469Z,1.20
2023-01-25T04:11:35.234Z,1.20
2023-01-25T04:14:01.785Z,1.20
2023-01-25T04:16:30.425Z,1.20
2023-01-25T04:18:57.212Z,1.20
2023-01-25T04:21:24.114Z,1.20
2023-01-25T04:23:50.817Z,1.20
2023-01-25T04:26:17.461Z,1.20
2023-01-25T04:28:44.209Z,1.20
2023-01-25T04:31:11.225Z,1.20
2023-01-25T04:33:37.826Z,1.20
2023-01-25T04:36:04.792Z,1.20
2023-01-25T04:38:31.412Z,1.20
2023-01-25T04:40:58.079Z,1.20
2023-01-25T04:43:26.100Z,1.20
2023-01-25T04:45:52.873Z,1.20
2023-01-25T04:48:19.538Z,1.20
2023-01-25T04:50:46.293Z,1.20
2023-01-25T04:53:13.236Z,1.20
2023-01-25T04:55:40.227Z,1.20
2023-01-25T04:58:06.944Z,1.20
2023-01-25T05:00:33.703Z,1.20
2023-01-25T05:03:00.315Z,1.20
2023-01-25T05:05:27.070Z,1.10
2023-01-25T05:07:53.686Z,1.10
2023-01-25T05:10:20.914Z,1.10
2023-01-25T05:12:47.577Z,1.10
2023-01-25T05:15:14.587Z,1.20
2023-01-25T05:17:41.167Z,1.10
2023-01-25T05:20:08.320Z,1.10
2023-01-25T05:22:34.975Z,1.20
2023-01-25T05:25:02.824Z,1.20
2023-01-25T05:27:29.399Z,1.10
2023-01-25T05:29:57.527Z,1.20
2023-01-25T05:32:24.552Z,1.20
2023-01-25T05:34:51.651Z,1.20
2023-01-25T05:37:21.095Z,1.20
2023-01-25T05:39:48.020Z,1.20
2023-01-25T05:42:17.597Z,1.20
2023-01-25T05:44:47.304Z,1.10
2023-01-25T05:47:16.262Z,1.10
2023-01-25T05:49:43.193Z,1.10
2023-01-25T05:52:18.945Z,1.10
2023-01-25T05:54:45.589Z,1.10
2023-01-25T05:57:14.632Z,1.10
2023-01-25T05:59:41.294Z,1.10
2023-01-25T06:02:07.941Z,1.10
2023-01-25T06:04:34.558Z,1.10
2023-01-25T06:07:01.325Z,1.10
2023-01-25T06:09:27.940Z,1.10
2023-01-25T06:11:54.506Z,1.10
2023-01-25T06:14:21.125Z,0.90
2023-01-25T06:16:47.694Z,1.00
2023-01-25T06:19:14.357Z,1.10
2023-01-25T06:21:40.985Z,1.10
2023-01-25T06:24:07.998Z,1.10
2023-01-25T06:26:34.641Z,1.20
2023-01-25T06:29:01.340Z,1.20
2023-01-25T06:31:28.050Z,1.20
2023-01-25T06:33:54.796Z,1.20
2023-01-25T06:36:22.648Z,1.20
2023-01-25T06:38:50.969Z,1.20
2023-01-25T06:41:18.483Z,1.20
2023-01-25T06:43:45.503Z,1.20
2023-01-25T06:46:12.548Z,0.80
2023-01-25T06:48:39.898Z,0.80
2023-01-25T06:51:10.105Z,0.80
2023-01-25T06:53:40.679Z,0.80
2023-01-25T06:56:11.824Z,0.90
2023-01-25T06:58:39.164Z,0.90
2023-01-25T07:01:11.415Z,1.00
2023-01-25T07:03:38.061Z,1.00
2023-01-25T07:06:07.811Z,1.10
2023-01-25T07:08:35.241Z,1.10
2023-01-25T07:11:05.246Z,1.10
2023-01-25T07:13:33.298Z,1.10
2023-01-25T07:16:05.557Z,1.10
2023-01-25T07:18:33.221Z,1.10
2023-01-25T07:21:05.255Z,1.10
2023-01-25T07:23:33.327Z,1.10
2023-01-25T07:26:00.658Z,1.20
2023-01-25T07:28:27.650Z,1.00
2023-01-25T07:30:54.279Z,0.70
2023-01-25T07:33:20.851Z,0.70
2023-01-25T07:35:48.170Z,0.70
2023-01-25T07:38:14.984Z,0.70
2023-01-25T07:40:41.550Z,0.70
2023-01-25T07:43:08.356Z,0.80
2023-01-25T07:45:35.002Z,0.80
2023-01-25T07:48:09.862Z,0.80
2023-01-25T07:50:36.523Z,0.90
2023-01-25T07:53:03.118Z,0.90
2023-01-25T07:55:30.569Z,0.90
2023-01-25T07:57:57.130Z,0.80
2023-01-25T08:00:24.986Z,1.00
2023-01-25T08:02:52.334Z,1.00
2023-01-25T08:05:19.798Z,1.00
2023-01-25T08:07:47.241Z,1.10
2023-01-25T08:10:14.202Z,1.10
2023-01-25T08:12:46.138Z,1.20
2023-01-25T08:15:14.111Z,1.20
2023-01-25T08:17:40.794Z,0.80
2023-01-25T08:20:08.719Z,0.80
2023-01-25T08:22:35.522Z,0.80
2023-01-25T08:25:04.090Z,0.70
2023-01-25T08:27:30.715Z,0.70
2023-01-25T08:29:57.339Z,0.70
2023-01-25T08:32:24.165Z,0.60
2023-01-25T08:34:50.826Z,0.70
2023-01-25T08:37:17.418Z,0.70
2023-01-25T08:39:44.088Z,0.60
2023-01-25T08:42:10.697Z,0.60
2023-01-25T08:44:37.291Z,0.50
2023-01-25T08:47:03.994Z,0.50
2023-01-25T08:49:31.644Z,0.50
2023-01-25T08:51:58.388Z,0.60
2023-01-25T08:54:24.991Z,0.80
2023-01-25T08:56:51.975Z,0.70
2023-01-25T08:59:18.619Z,0.60
2023-01-25T09:01:45.298Z,0.60
2023-01-25T09:04:11.871Z,0.60
2023-01-25T09:06:38.469Z,0.60
2023-01-25T09:09:05.130Z,0.60
2023-01-25T09:11:34.453Z,0.60
2023-01-25T09:14:01.037Z,0.50
2023-01-25T09:16:30.792Z,0.70
2023-01-25T09:18:59.683Z,0.80
2023-01-25T09:21:26.757Z,0.90
2023-01-25T09:24:09.971Z,1.00
2023-01-25T09:26:40.905Z,1.10
2023-01-25T09:29:10.746Z,1.10
2023-01-25T09:31:45.266Z,1.10
2023-01-25T09:34:13.944Z,1.10
2023-01-25T09:36:40.614Z,1.20
2023-01-25T09:39:07.712Z,1.30
2023-01-25T09:41:40.120Z,1.20
2023-01-25T09:44:28.391Z,0.90
2023-01-25T09:47:21.758Z,0.80
2023-01-25T09:50:26.944Z,0.60
2023-01-25T09:53:06.565Z,0.60
2023-01-25T09:55:33.812Z,0.60
2023-01-25T09:58:02.618Z,0.60
2023-01-25T10:00:35.885Z,0.70
2023-01-25T10:03:27.067Z,0.90
2023-01-25T10:05:57.825Z,1.00
2023-01-25T10:08:50.835Z,1.10
2023-01-25T10:11:25.926Z,1.20
2023-01-25T10:13:55.867Z,1.30
2023-01-25T10:16:39.961Z,1.30
2023-01-25T10:19:19.415Z,1.30
2023-01-25T10:21:53.415Z,1.30
2023-01-25T10:24:31.155Z,1.30
2023-01-25T10:27:03.455Z,1.30
2023-01-25T10:29:37.307Z,1.30
2023-01-25T10:32:26.227Z,1.00
2023-01-25T10:34:57.728Z,0.80
2023-01-25T10:37:30.693Z,0.90
2023-01-25T10:40:05.033Z,1.10
2023-01-25T10:42:38.285Z,1.20
2023-01-25T10:45:12.402Z,1.10
2023-01-25T10:47:42.640Z,0.90
2023-01-25T10:50:09.956Z,0.70
2023-01-25T10:52:38.754Z,0.90
2023-01-25T10:55:23.564Z,1.10
2023-01-25T10:57:57.684Z,1.30
2023-01-25T11:00:40.361Z,1.30
2023-01-25T11:03:20.465Z,1.10
2023-01-25T11:05:55.328Z,1.10
2023-01-25T11:08:23.531Z,1.00
2023-01-25T11:10:50.896Z,0.90
2023-01-25T11:13:21.026Z,0.90
2023-01-25T11:15:49.909Z,0.90
2023-01-25T11:18:29.386Z,1.00
2023-01-25T11:21:18.785Z,1.10
2023-01-25T11:23:59.886Z,1.20
2023-01-25T11:26:27.399Z,1.20
2023-01-25T11:29:18.384Z,1.20
2023-01-25T11:31:51.485Z,1.20
2023-01-25T11:34:25.424Z,1.10
2023-01-25T11:37:05.575Z,1.10
2023-01-25T11:39:38.122Z,1.30
2023-01-25T11:42:23.493Z,1.20
2023-01-25T11:45:09.005Z,1.00
2023-01-25T11:47:41.466Z,0.90
2023-01-25T11:50:31.100Z,1.00
2023-01-25T11:53:20.622Z,1.00
2023-01-25T11:56:00.342Z,0.90
2023-01-25T11:58:39.167Z,0.90
2023-01-25T12:01:36.111Z,1.00
2023-01-25T12:04:21.189Z,0.90
2023-01-25T12:06:59.060Z,0.90
2023-01-25T12:09:28.790Z,1.10
2023-01-25T12:12:33.182Z,1.00
2023-01-25T12:15:17.058Z,1.10
2023-01-25T12:18:13.212Z,1.00
2023-01-25T12:21:00.461Z,0.90
2023-01-25T12:23:41.969Z,0.90
2023-01-25T12:26:17.793Z,0.90
2023-01-25T12:28:57.146Z,0.80
2023-01-25T12:31:44.751Z,0.70
2023-01-25T12:34:22.041Z,0.80
2023-01-25T12:36:50.261Z,0.90
2023-01-25T12:39:27.479Z,0.70
2023-01-25T12:42:06.026Z,0.60
2023-01-25T12:44:48.442Z,0.70
2023-01-25T12:47:37.568Z,0.80
2023-01-25T12:50:21.602Z,0.70
2023-01-25T12:53:17.695Z,0.60
2023-01-25T12:55:45.206Z,0.60
2023-01-25T12:58:38.513Z,0.70
2023-01-25T13:01:17.415Z,0.80
2023-01-25T13:03:59.271Z,0.70
2023-01-25T13:06:36.795Z,0.70
2023-01-25T13:09:23.394Z,0.70
2023-01-25T13:11:50.306Z,0.70
2023-01-25T13:14:16.885Z,0.80
2023-01-25T13:17:01.478Z,1.00
2023-01-25T13:19:35.949Z,1.10
2023-01-25T13:22:02.566Z,1.20
2023-01-25T13:24:31.640Z,1.20
2023-01-25T13:27:24.066Z,1.20
2023-01-25T13:30:03.651Z,1.10
2023-01-25T13:32:33.325Z,1.30
2023-01-25T13:35:01.042Z,1.30
2023-01-25T13:37:35.730Z,1.30
2023-01-25T13:40:06.437Z,1.20
2023-01-25T13:42:35.084Z,1.20
2023-01-25T13:45:15.481Z,1.20
2023-01-25T13:47:44.043Z,1.20
2023-01-25T13:50:21.477Z,1.10
2023-01-25T13:53:01.485Z,1.10
2023-01-25T13:55:29.583Z,1.00
2023-01-25T13:58:18.379Z,0.90
2023-01-25T14:01:09.257Z,0.70
2023-01-25T14:03:47.605Z,0.80
2023-01-25T14:06:24.546Z,0.90
2023-01-25T14:08:53.027Z,0.80
2023-01-25T14:11:51.715Z,0.60
2023-01-25T14:14:28.820Z,0.60
2023-01-25T14:17:16.579Z,0.60
2023-01-25T14:20:21.678Z,0.80
2023-01-25T14:22:50.188Z,0.90
2023-01-25T14:25:18.119Z,1.00
2023-01-25T14:27:48.377Z,1.00
2023-01-25T14:30:22.583Z,1.00
2023-01-25T14:32:51.193Z,1.00
2023-01-25T14:35:43.261Z,1.00
2023-01-25T14:38:21.813Z,1.10
2023-01-25T14:40:50.391Z,1.10
2023-01-25T14:43:18.183Z,1.00
2023-01-25T14:45:45.188Z,1.10
2023-01-25T14:48:34.428Z,1.10
2023-01-25T14:51:28.628Z,1.10
2023-01-25T14:54:10.728Z,1.10
2023-01-25T14:56:49.245Z,0.90
2023-01-25T14:59:36.580Z,0.60
2023-01-25T15:02:26.160Z,0.50
2023-01-25T15:05:14.990Z,0.40
2023-01-25T15:07:58.691Z,0.30
2023-01-25T15:10:31.141Z,0.40
2023-01-25T15:13:13.533Z,0.40
2023-01-25T15:15:58.992Z,0.30
2023-01-25T15:18:42.340Z,0.40
2023-01-25T15:21:12.178Z,0.30
2023-01-25T15:23:42.210Z,0.30
2023-01-25T15:26:13.518Z,0.30
2023-01-25T15:28:40.063Z,0.20
2023-01-25T15:31:06.837Z,0.20
2023-01-25T15:33:34.626Z,0.20
2023-01-25T15:36:01.207Z,0.20
2023-01-25T15:38:27.809Z,0.10
2023-01-25T15:41:00.181Z,0.10
2023-01-25T15:43:26.786Z,0.10
2023-01-25T15:45:56.634Z,0.10
2023-01-25T15:48:35.671Z,0.10
2023-01-25T15:51:02.272Z,0.30
2023-01-25T15:53:28.877Z,0.40
2023-01-25T15:56:04.685Z,0.50
2023-01-25T15:58:35.130Z,0.20
2023-01-25T16:01:02.035Z,0.10
2023-01-25T16:03:30.143Z,0.30
2023-01-25T16:05:58.297Z,0.40
2023-01-25T16:08:24.954Z,0.40
2023-01-25T16:10:51.789Z,0.50
2023-01-25T16:13:18.343Z,0.60
2023-01-25T16:15:49.288Z,0.50
2023-01-25T16:18:15.840Z,0.40
2023-01-25T16:20:43.522Z,0.30
2023-01-25T16:23:11.894Z,0.20
2023-01-25T16:25:40.131Z,0.20
2023-01-25T16:28:09.624Z,0.20
2023-01-25T16:30:36.309Z,0.20
2023-01-25T16:33:02.927Z,0.10
2023-01-25T16:35:29.455Z,0.10
2023-01-25T16:37:56.837Z,0.10
2023-01-25T16:40:26.500Z,0.10
2023-01-25T16:42:53.072Z,0.20
2023-01-25T16:45:19.742Z,0.40
2023-01-25T16:47:47.697Z,0.30
2023-01-25T16:50:16.450Z,0.40
2023-01-25T16:52:44.851Z,0.40
2023-01-25T16:55:13.660Z,0.20
2023-01-25T16:57:42.599Z,0.20
2023-01-25T17:00:12.488Z,0.10
2023-01-25T17:02:46.831Z,0.10
2023-01-25T17:05:23.812Z,0.00
2023-01-25T17:07:51.360Z,-0.10
2023-01-25T17:10:18.137Z,-0.10
2023-01-25T17:12:45.769Z,-0.10
2023-01-25T17:15:12.372Z,-0.10
2023-01-25T17:17:38.906Z,-0.10
2023-01-25T17:20:06.192Z,-0.20
2023-01-25T17:22:37.240Z,-0.20
2023-01-25T17:25:07.085Z,-0.20
2023-01-25T17:27:33.687Z,-0.10
2023-01-25T17:30:00.257Z,-0.10
2023-01-25T17:32:27.044Z,-0.20
2023-01-25T17:34:53.697Z,-0.30
2023-01-25T17:37:20.381Z,-0.30
2023-01-25T17:39:47.611Z,-0.30
2023-01-25T17:42:14.596Z,-0.30
2023-01-25T17:44:41.316Z,-0.30
2023-01-25T17:47:07.901Z,-0.40
2023-01-25T17:49:34.501Z,-0.40
2023-01-25T17:52:02.670Z,-0.50
2023-01-25T17:54:29.292Z,-0.40
2023-01-25T17:56:56.360Z,-0.50
2023-01-25T17:59:23.063Z,-0.60
2023-01-25T18:01:50.456Z,-0.60
2023-01-25T18:04:17.544Z,-0.60
2023-01-25T18:06:44.341Z,-0.40
2023-01-25T18:09:10.959Z,-0.50
2023-01-25T18:11:40.660Z,-0.40
2023-01-25T18:14:12.453Z,-0.50
2023-01-25T18:16:40.706Z,-0.60
2023-01-25T18:19:08.378Z,-0.50
2023-01-25T18:21:36.539Z,-0.60
2023-01-25T18:24:33.920Z,-0.60
2023-01-25T18:27:22.250Z,-0.60
2023-01-25T18:30:02.376Z,-0.60
2023-01-25T18:32:30.332Z,-0.50
2023-01-25T18:34:56.985Z,-0.60
2023-01-25T18:37:27.834Z,-0.70
2023-01-25T18:39:55.722Z,-0.80
2023-01-25T18:42:24.544Z,-0.80
2023-01-25T18:44:51.275Z,-0.80
2023-01-25T18:47:19.363Z,-0.90
2023-01-25T18:49:47.629Z,-0.90
2023-01-25T18:52:14.361Z,-0.90
2023-01-25T18:54:40.925Z,-0.90
2023-01-25T18:57:09.135Z,-0.90
2023-01-25T18:59:35.806Z,-0.90
2023-01-25T19:02:02.498Z,-0.90
2023-01-25T19:04:29.398Z,-0.90
2023-01-25T19:07:01.267Z,-1.00
2023-01-25T19:09:28.431Z,-1.00
2023-01-25T19:11:55.545Z,-1.10
2023-01-25T19:14:23.137Z,-1.10
2023-01-25T19:16:50.386Z,-1.00
2023-01-25T19:19:17.543Z,-1.00
2023-01-25T19:21:44.246Z,-1.00
2023-01-25T19:24:12.602Z,-0.90
2023-01-25T19:26:40.076Z,-0.80
2023-01-25T19:29:07.788Z,-0.80
2023-01-25T19:31:37.115Z,-0.90
2023-01-25T19:34:06.262Z,-0.80
2023-01-25T19:36:35.886Z,-0.60
2023-01-25T19:39:03.877Z,-0.70
2023-01-25T19:41:31.249Z,-0.70
2023-01-25T19:43:59.927Z,-0.80
2023-01-25T19:46:30.229Z,-0.90
2023-01-25T19:48:57.803Z,-1.00
2023-01-25T19:51:29.911Z,-1.00
2023-01-25T19:54:00.577Z,-0.90
2023-01-25T19:56:28.922Z,-0.90
2023-01-25T19:58:55.733Z,-0.80
2023-01-25T20:01:24.699Z,-0.70
2023-01-25T20:03:52.688Z,-0.80
2023-01-25T20:06:21.094Z,-1.10
2023-01-25T20:08:48.282Z,-1.10
2023-01-25T20:11:24.379Z,-1.20
2023-01-25T20:13:54.324Z,-1.20
2023-01-25T20:16:21.836Z,-1.10
2023-01-25T20:18:49.453Z,-1.10
2023-01-25T20:21:23.781Z,-1.00
2023-01-25T20:23:54.920Z,-1.10
2023-01-25T20:26:23.912Z,-1.00
2023-01-25T20:28:52.359Z,-1.10
2023-01-25T20:31:23.833Z,-1.10
2023-01-25T20:33:53.115Z,-1.20
2023-01-25T20:36:20.019Z,-1.20
2023-01-25T20:38:47.272Z,-1.30
2023-01-25T20:41:16.810Z,-1.30
2023-01-25T20:43:51.919Z,-1.40
2023-01-25T20:46:19.772Z,-1.40
2023-01-25T20:48:46.442Z,-1.40
2023-01-25T20:51:16.761Z,-1.50
2023-01-25T20:53:45.514Z,-1.50
2023-01-25T20:56:13.298Z,-1.50
2023-01-25T20:58:40.000Z,-1.50
2023-01-25T21:01:20.513Z,-1.50
2023-01-25T21:03:47.869Z,-1.40
2023-01-25T21:06:15.296Z,-1.40
2023-01-25T21:08:42.594Z,-1.40
2023-01-25T21:11:09.855Z,-1.50
2023-01-25T21:13:36.508Z,-1.50
2023-01-25T21:16:10.009Z,-1.50
2023-01-25T21:18:37.909Z,-1.50
2023-01-25T21:21:12.889Z,-1.50
2023-01-25T21:23:41.805Z,-1.50
2023-01-25T21:26:13.014Z,-1.40
2023-01-25T21:28:39.703Z,-1.40
2023-01-25T21:31:20.684Z,-1.30
2023-01-25T21:33:48.263Z,-1.30
2023-01-25T21:36:19.365Z,-1.20
2023-01-25T21:38:48.358Z,-1.30
2023-01-25T21:41:19.683Z,-1.30
2023-01-25T21:44:05.663Z,-1.40
2023-01-25T21:46:32.334Z,-1.40
2023-01-25T21:49:19.985Z,-1.50
2023-01-25T21:51:51.984Z,-1.50
2023-01-25T21:54:18.466Z,-1.60
2023-01-25T21:56:46.984Z,-1.60
2023-01-25T21:59:14.001Z,-1.60
2023-01-25T22:01:40.607Z,-1.60
2023-01-25T22:04:07.214Z,-1.60
2023-01-25T22:06:33.872Z,-1.70
2023-01-25T22:09:00.655Z,-1.70
2023-01-25T22:11:27.310Z,-1.70
2023-01-25T22:13:54.721Z,-1.80
2023-01-25T22:16:21.686Z,-1.80
2023-01-25T22:18:49.032Z,-1.80
2023-01-25T22:21:23.701Z,-1.80
2023-01-25T22:23:51.259Z,-1.70
2023-01-25T22:26:20.245Z,-1.60
2023-01-25T22:28:49.836Z,-1.50
2023-01-25T22:31:21.824Z,-1.60
2023-01-25T22:33:48.955Z,-1.60
2023-01-25T22:36:17.902Z,-1.60
2023-01-25T22:38:44.593Z,-1.60
2023-01-25T22:41:16.282Z,-1.60
2023-01-25T22:43:44.815Z,-1.60
2023-01-25T22:46:14.897Z,-1.60
2023-01-25T22:48:41.542Z,-1.50
2023-01-25T22:51:15.208Z,-1.60
2023-01-25T22:53:42.213Z,-1.70
2023-01-25T22:56:15.598Z,-1.70
2023-01-25T22:58:43.674Z,-1.70
2023-01-25T23:01:12.648Z,-1.70
2023-01-25T23:03:39.538Z,-1.70
2023-01-25T23:06:13.819Z,-1.70
2023-01-25T23:08:40.926Z,-1.80
2023-01-25T23:11:16.502Z,-1.70
2023-01-25T23:14:06.920Z,-1.60
2023-01-25T23:16:36.449Z,-1.50
2023-01-25T23:19:04.955Z,-1.40
2023-01-25T23:21:32.239Z,-1.50
2023-01-25T23:24:02.967Z,-1.60
2023-01-25T23:26:37.693Z,-1.50
2023-01-25T23:29:10.633Z,-1.60
2023-01-25T23:31:37.608Z,-1.40
2023-01-25T23:34:06.074Z,-1.30
2023-01-25T23:36:41.702Z,-1.30
2023-01-25T23:39:11.003Z,-1.20
2023-01-25T23:41:37.568Z,-1.30
2023-01-25T23:44:04.266Z,-1.40
2023-01-25T23:46:31.014Z,-1.20
2023-01-25T23:48:57.632Z,-1.10
2023-01-25T23:51:24.381Z,-1.10
2023-01-25T23:53:53.270Z,-1.20
2023-01-25T23:56:21.345Z,-1.10
2023-01-25T23:58:48.394Z,-1.00
